Terminal Aerodrome Forecast
Issued by NWS Paducah, KY

Home | Current Version | Previous Version | Text Only | Print | Product List | Glossary On
Versions: 1 2 3 4 5 6 7 8 9 10 11 12 13 14 15 16 17 18 19 20 21
000
FTUS43 KPAH 020520
TAFPAH
TAF
KPAH 020520Z 0206/0306 02005KT P6SM OVC020
      TEMPO 0209/0213 5SM BR OVC025
     FM021400 03007KT P6SM BKN025
     FM022100 03006KT P6SM SCT035
     FM030100 02002KT P6SM SCT250=

USA.gov is the U.S. government's official web portal to all federal, state and local government web resources and services.